createdAt,value
2018-10-09T00:01:25.029Z,97.20
2018-10-09T00:03:53.498Z,97.50
2018-10-09T00:06:22.029Z,97.90
2018-10-09T00:08:50.541Z,97.70
2018-10-09T00:11:19.631Z,97.60
2018-10-09T00:13:48.144Z,97.10
2018-10-09T00:16:16.633Z,97.10
2018-10-09T00:18:45.099Z,97.10
2018-10-09T00:21:13.581Z,97.30
2018-10-09T00:23:42.012Z,97.40
2018-10-09T00:26:10.572Z,97.10
2018-10-09T00:28:38.988Z,96.50
2018-10-09T00:31:07.654Z,96.80
2018-10-09T00:33:36.286Z,96.60
2018-10-09T00:36:04.871Z,96.90
2018-10-09T00:38:33.436Z,97.00
2018-10-09T00:41:02.012Z,97.10
2018-10-09T00:43:30.540Z,97.70
2018-10-09T00:45:59.065Z,97.40
2018-10-09T00:48:27.577Z,97.40
2018-10-09T00:50:56.065Z,98.00
2018-10-09T00:53:24.547Z,98.60
2018-10-09T00:55:53.051Z,98.70
2018-10-09T00:58:21.511Z,98.70
2018-10-09T01:00:50.089Z,98.50
2018-10-09T01:03:18.516Z,98.20
2018-10-09T01:05:47.017Z,98.70
2018-10-09T01:08:15.510Z,98.10
2018-10-09T01:10:44.190Z,97.50
2018-10-09T01:13:12.735Z,97.20
2018-10-09T01:15:41.204Z,97.50
2018-10-09T01:18:09.720Z,97.90
2018-10-09T01:20:38.208Z,98.10
2018-10-09T01:23:07.320Z,98.00
2018-10-09T01:25:36.593Z,98.00
2018-10-09T01:28:05.177Z,98.40
2018-10-09T01:30:34.757Z,98.00
2018-10-09T01:33:03.915Z,97.90
2018-10-09T01:35:32.857Z,98.00
2018-10-09T01:38:01.724Z,98.00
2018-10-09T01:40:30.313Z,98.20
2018-10-09T01:42:58.884Z,98.00
2018-10-09T01:45:27.336Z,98.50
2018-10-09T01:47:55.895Z,98.90
2018-10-09T01:50:24.368Z,99.20
2018-10-09T01:52:52.917Z,98.60
2018-10-09T01:55:21.381Z,98.70
2018-10-09T01:57:49.868Z,97.90
2018-10-09T02:00:18.284Z,97.40
2018-10-09T02:02:46.744Z,97.70
2018-10-09T02:05:15.225Z,97.80
2018-10-09T02:07:43.713Z,97.70
2018-10-09T02:10:12.248Z,98.20
2018-10-09T02:12:40.713Z,98.50
2018-10-09T02:15:09.216Z,98.90
2018-10-09T02:17:37.752Z,98.20
2018-10-09T02:20:06.287Z,97.50
2018-10-09T02:22:34.833Z,97.20
2018-10-09T02:25:03.440Z,97.60
2018-10-09T02:27:31.958Z,97.60
2018-10-09T02:30:00.477Z,97.10
2018-10-09T02:32:28.910Z,97.60
2018-10-09T02:34:57.419Z,97.60
2018-10-09T02:37:25.953Z,97.70
2018-10-09T02:39:54.445Z,98.50
2018-10-09T02:42:22.988Z,98.30
2018-10-09T02:44:51.474Z,97.50
2018-10-09T02:47:19.938Z,97.50
2018-10-09T02:49:48.380Z,97.30
2018-10-09T02:52:16.866Z,97.80
2018-10-09T02:54:45.287Z,97.30
2018-10-09T02:57:13.764Z,96.80
2018-10-09T02:59:42.284Z,97.20
2018-10-09T03:02:10.771Z,97.40
2018-10-09T03:04:39.220Z,97.60
2018-10-09T03:07:07.683Z,97.30
2018-10-09T03:09:36.552Z,97.30
2018-10-09T03:12:05.069Z,96.70
2018-10-09T03:14:33.618Z,96.70
2018-10-09T03:17:02.150Z,96.70
2018-10-09T03:19:30.623Z,96.80
2018-10-09T03:21:59.128Z,97.40
2018-10-09T03:24:27.575Z,97.80
2018-10-09T03:26:55.994Z,97.40
2018-10-09T03:29:24.440Z,97.60
2018-10-09T03:31:52.900Z,97.00
2018-10-09T03:34:21.415Z,96.80
2018-10-09T03:36:49.868Z,97.20
2018-10-09T03:39:18.379Z,97.30
2018-10-09T03:41:46.839Z,97.30
2018-10-09T03:44:15.312Z,96.70
2018-10-09T03:46:43.826Z,96.60
2018-10-09T03:49:12.280Z,96.60
2018-10-09T03:51:40.744Z,96.60
2018-10-09T03:54:09.362Z,96.80
2018-10-09T03:56:37.976Z,97.00
2018-10-09T03:59:06.563Z,96.50
2018-10-09T04:01:35.184Z,96.50
2018-10-09T04:04:05.718Z,96.60
2018-10-09T04:06:34.264Z,96.50
2018-10-09T04:09:03.141Z,96.60
2018-10-09T04:11:31.756Z,96.80
2018-10-09T04:14:00.372Z,96.80
2018-10-09T04:16:28.875Z,96.80
2018-10-09T04:18:57.356Z,96.50
2018-10-09T04:21:25.788Z,97.00
2018-10-09T04:23:54.232Z,96.60
2018-10-09T04:26:22.698Z,96.80
2018-10-09T04:28:51.149Z,97.00
2018-10-09T04:31:19.589Z,97.10
2018-10-09T04:33:48.090Z,96.80
2018-10-09T04:36:16.578Z,97.10
2018-10-09T04:38:45.022Z,97.10
2018-10-09T04:41:13.429Z,96.50
2018-10-09T04:43:41.917Z,96.50
2018-10-09T04:46:10.356Z,96.90
2018-10-09T04:48:38.855Z,97.20
2018-10-09T04:51:07.355Z,97.50
2018-10-09T04:53:35.991Z,97.60
2018-10-09T04:56:04.555Z,97.70
2018-10-09T04:58:33.140Z,97.60
2018-10-09T05:01:01.730Z,97.20
2018-10-09T05:03:30.336Z,97.20
2018-10-09T05:05:58.854Z,97.70
2018-10-09T05:08:27.249Z,97.60
2018-10-09T05:10:55.775Z,97.60
2018-10-09T05:13:24.253Z,97.40
2018-10-09T05:15:52.705Z,97.60
2018-10-09T05:18:21.170Z,97.40
2018-10-09T05:20:49.625Z,97.60
2018-10-09T05:23:18.168Z,97.80
2018-10-09T05:25:46.715Z,97.50
2018-10-09T05:28:15.192Z,97.60
2018-10-09T05:30:43.759Z,97.90
2018-10-09T05:33:12.208Z,97.70
2018-10-09T05:35:40.712Z,97.60
2018-10-09T05:38:09.225Z,97.60
2018-10-09T05:40:37.792Z,97.70
2018-10-09T05:43:06.789Z,97.60
2018-10-09T05:45:40.354Z,97.70
2018-10-09T05:48:09.816Z,97.40
2018-10-09T05:50:38.308Z,97.30
2018-10-09T05:53:06.920Z,97.30
2018-10-09T05:55:36.171Z,97.40
2018-10-09T05:58:04.804Z,97.30
2018-10-09T06:00:33.411Z,97.20
2018-10-09T06:03:02.084Z,96.80
2018-10-09T06:05:31.089Z,97.10
2018-10-09T06:07:59.736Z,96.90
2018-10-09T06:10:28.280Z,96.80
2018-10-09T06:12:56.743Z,96.70
2018-10-09T06:15:25.373Z,96.90
2018-10-09T06:17:53.811Z,96.70
2018-10-09T06:20:22.366Z,96.80
2018-10-09T06:22:51.315Z,97.10
2018-10-09T06:25:20.086Z,97.20
2018-10-09T06:27:48.542Z,97.40
2018-10-09T06:30:17.089Z,97.30
2018-10-09T06:32:45.517Z,97.20
2018-10-09T06:35:14.038Z,97.60
2018-10-09T06:37:42.609Z,97.70
2018-10-09T06:40:11.138Z,97.60
2018-10-09T06:42:39.711Z,97.50
2018-10-09T06:45:08.180Z,97.50
2018-10-09T06:47:37.382Z,98.00
2018-10-09T06:50:06.122Z,98.00
2018-10-09T06:52:35.977Z,98.00
2018-10-09T06:55:04.690Z,98.10
2018-10-09T06:57:33.195Z,98.60
2018-10-09T07:00:01.793Z,98.80
2018-10-09T07:02:31.028Z,99.00
2018-10-09T07:04:59.810Z,98.80
2018-10-09T07:07:28.329Z,98.70
2018-10-09T07:09:56.850Z,98.80
2018-10-09T07:12:25.396Z,99.00
2018-10-09T07:14:53.965Z,99.00
2018-10-09T07:17:22.449Z,99.30
2018-10-09T07:19:50.902Z,99.80
2018-10-09T07:22:19.551Z,99.40
2018-10-09T07:24:48.018Z,99.50
2018-10-09T07:27:16.486Z,99.50
2018-10-09T07:29:44.997Z,99.80
2018-10-09T07:32:13.501Z,99.70
2018-10-09T07:34:41.972Z,99.80
2018-10-09T07:37:10.533Z,99.90
2018-10-09T07:39:39.075Z,99.90
2018-10-09T07:42:07.628Z,99.90
2018-10-09T07:44:42.700Z,99.80
2018-10-09T07:47:11.242Z,99.60
2018-10-09T07:49:39.730Z,99.50
2018-10-09T07:52:08.685Z,99.30
2018-10-09T07:54:37.281Z,99.30
2018-10-09T07:57:05.995Z,99.70
2018-10-09T07:59:41.167Z,99.50
2018-10-09T08:02:09.773Z,99.60
2018-10-09T08:04:39.975Z,99.60
2018-10-09T08:07:09.485Z,99.80
2018-10-09T08:09:42.616Z,99.90
2018-10-09T08:12:13.423Z,99.70
2018-10-09T08:17:28.767Z,99.20
2018-10-09T08:19:57.917Z,99.00
2018-10-09T08:22:49.135Z,98.70
2018-10-09T08:25:22.147Z,98.40
2018-10-09T08:28:02.523Z,98.60
2018-10-09T08:30:40.955Z,98.60
2018-10-09T08:33:13.023Z,98.90
2018-10-09T08:35:41.626Z,98.80
2018-10-09T08:38:10.577Z,98.50
2018-10-09T08:40:40.804Z,98.40
2018-10-09T08:43:10.394Z,98.10
2018-10-09T08:45:39.353Z,98.20
2018-10-09T08:48:08.592Z,98.10
2018-10-09T08:50:37.536Z,97.70
2018-10-09T08:53:07.042Z,97.70
2018-10-09T08:55:35.785Z,97.60
2018-10-09T08:58:04.462Z,97.90
2018-10-09T09:00:33.873Z,97.70
2018-10-09T09:03:03.235Z,97.30
2018-10-09T09:05:32.308Z,96.90
2018-10-09T09:08:01.175Z,96.30
2018-10-09T09:10:29.718Z,96.30
2018-10-09T09:12:58.298Z,96.00
2018-10-09T09:15:27.064Z,95.40
2018-10-09T09:17:55.511Z,95.60
2018-10-09T09:20:24.036Z,95.80
2018-10-09T09:22:52.672Z,95.50
2018-10-09T09:25:21.173Z,95.60
2018-10-09T09:27:49.894Z,95.40
2018-10-09T09:30:18.482Z,94.90
2018-10-09T09:32:47.078Z,94.90
2018-10-09T09:35:15.663Z,94.90
2018-10-09T09:37:44.238Z,94.90
2018-10-09T09:40:12.700Z,94.90
2018-10-09T09:42:41.209Z,94.60
2018-10-09T09:45:09.716Z,95.00
2018-10-09T09:47:38.520Z,94.10
2018-10-09T09:50:07.562Z,94.10
2018-10-09T09:52:36.169Z,94.50
2018-10-09T09:55:05.125Z,94.10
2018-10-09T09:57:33.717Z,93.60
2018-10-09T10:00:02.508Z,93.40
2018-10-09T10:02:31.384Z,93.00
2018-10-09T10:05:00.258Z,92.60
2018-10-09T10:07:28.859Z,92.40
2018-10-09T10:09:57.334Z,92.50
2018-10-09T10:12:25.878Z,92.50
2018-10-09T10:14:54.498Z,92.60
2018-10-09T10:17:23.035Z,92.20
2018-10-09T10:19:51.502Z,92.00
2018-10-09T10:22:20.237Z,91.40
2018-10-09T10:24:48.733Z,90.10
2018-10-09T10:27:17.314Z,90.30
2018-10-09T10:29:45.830Z,90.10
2018-10-09T10:32:14.801Z,89.40
2018-10-09T10:34:43.390Z,89.30
2018-10-09T10:37:12.002Z,89.40
2018-10-09T10:39:40.487Z,90.00
2018-10-09T10:42:09.296Z,90.00
2018-10-09T10:44:37.983Z,89.20
2018-10-09T10:47:06.818Z,89.20
2018-10-09T10:49:35.735Z,88.70
2018-10-09T10:52:04.451Z,89.20
2018-10-09T10:54:33.381Z,89.20
2018-10-09T10:57:02.092Z,87.90
2018-10-09T10:59:30.741Z,88.40
2018-10-09T11:01:59.285Z,87.90
2018-10-09T11:04:27.790Z,87.70
2018-10-09T11:06:56.408Z,87.80
2018-10-09T11:09:24.961Z,87.50
2018-10-09T11:11:53.434Z,87.50
2018-10-09T11:14:21.966Z,87.70
2018-10-09T11:16:50.450Z,87.30
2018-10-09T11:19:18.965Z,86.20
2018-10-09T11:21:47.525Z,86.50
2018-10-09T11:24:16.223Z,85.80
2018-10-09T11:26:44.840Z,86.60
2018-10-09T11:29:13.313Z,87.80
2018-10-09T11:31:41.777Z,88.10
2018-10-09T11:34:10.337Z,88.40
2018-10-09T11:36:38.908Z,88.60
2018-10-09T11:39:08.664Z,88.70
2018-10-09T11:41:37.755Z,89.60
2018-10-09T11:44:06.952Z,90.00
2018-10-09T11:46:36.497Z,89.30
2018-10-09T11:49:05.621Z,89.40
2018-10-09T11:51:34.150Z,89.60
2018-10-09T11:54:02.934Z,90.10
2018-10-09T11:56:31.577Z,90.00
2018-10-09T11:59:00.137Z,89.50
2018-10-09T12:01:28.660Z,89.00
2018-10-09T12:03:57.467Z,88.90
2018-10-09T12:06:25.950Z,88.80
2018-10-09T12:08:54.516Z,88.80
2018-10-09T12:11:23.028Z,87.70
2018-10-09T12:19:38.785Z,86.90
2018-10-09T12:22:07.671Z,86.10
2018-10-09T12:27:39.598Z,85.00
2018-10-09T12:30:13.958Z,85.00
2018-10-09T12:32:43.531Z,85.10
2018-10-09T12:35:13.701Z,85.60
2018-10-09T12:37:42.567Z,85.20
2018-10-09T12:40:12.183Z,85.10
2018-10-09T12:42:40.740Z,85.20
2018-10-09T12:45:09.342Z,85.20
2018-10-09T12:47:37.866Z,85.30
2018-10-09T12:50:06.453Z,85.30
2018-10-09T12:52:35.009Z,84.20
2018-10-09T12:55:03.617Z,83.70
2018-10-09T12:57:34.347Z,83.20
2018-10-09T13:00:03.026Z,83.00
2018-10-09T13:02:31.734Z,83.00
2018-10-09T13:05:00.288Z,83.00
2018-10-09T13:07:28.865Z,82.40
2018-10-09T13:09:57.675Z,83.00
2018-10-09T13:12:26.262Z,83.20
2018-10-09T13:14:54.878Z,83.70
2018-10-09T13:17:23.482Z,83.60
2018-10-09T13:19:52.170Z,82.40
2018-10-09T13:22:21.511Z,82.20
2018-10-09T13:24:49.903Z,82.10
2018-10-09T13:27:18.509Z,81.90
2018-10-09T13:29:47.029Z,81.70
2018-10-09T13:32:15.734Z,81.90
2018-10-09T13:34:44.269Z,82.00
2018-10-09T13:37:12.844Z,81.70
2018-10-09T13:39:41.469Z,81.10
2018-10-09T13:42:10.081Z,81.20
2018-10-09T13:44:38.690Z,80.50
2018-10-09T13:47:07.429Z,81.00
2018-10-09T13:49:35.993Z,81.20
2018-10-09T13:52:04.553Z,80.90
2018-10-09T13:54:33.076Z,80.30
2018-10-09T13:57:02.103Z,80.20
2018-10-09T13:59:30.669Z,80.50
2018-10-09T14:01:59.256Z,80.70
2018-10-09T14:04:27.760Z,81.00
2018-10-09T14:06:58.366Z,80.50
2018-10-09T14:09:27.022Z,80.50
2018-10-09T14:11:55.617Z,80.20
2018-10-09T14:14:24.245Z,80.60
2018-10-09T14:16:52.722Z,79.90
2018-10-09T14:19:21.407Z,82.10
2018-10-09T14:21:50.078Z,78.80
2018-10-09T14:24:18.542Z,78.80
2018-10-09T14:26:47.121Z,79.00
2018-10-09T14:29:15.730Z,79.20
2018-10-09T14:31:44.274Z,79.10
2018-10-09T14:34:13.215Z,79.20
2018-10-09T14:36:41.721Z,79.20
2018-10-09T14:39:10.312Z,79.00
2018-10-09T14:41:38.929Z,79.30
2018-10-09T14:44:07.873Z,79.60
2018-10-09T14:46:36.354Z,80.00
2018-10-09T14:49:05.030Z,79.70
2018-10-09T14:51:33.733Z,79.60
2018-10-09T14:54:02.359Z,80.00
2018-10-09T14:56:30.972Z,79.70
2018-10-09T14:58:59.712Z,79.80
2018-10-09T15:01:28.302Z,79.80
2018-10-09T15:03:56.977Z,79.40
2018-10-09T15:06:25.673Z,79.40
2018-10-09T15:08:54.178Z,78.90
2018-10-09T15:11:22.746Z,78.20
2018-10-09T15:13:51.205Z,77.70
2018-10-09T15:16:19.896Z,77.90
2018-10-09T15:18:48.375Z,77.20
2018-10-09T15:21:17.055Z,77.50
2018-10-09T15:23:46.038Z,77.60
2018-10-09T15:26:14.600Z,77.00
2018-10-09T15:28:43.176Z,76.90
2018-10-09T15:31:11.894Z,77.00
2018-10-09T15:33:40.387Z,77.30
2018-10-09T15:36:09.077Z,77.50
2018-10-09T15:38:44.307Z,77.40
2018-10-09T15:41:12.854Z,77.40
2018-10-09T15:43:41.405Z,77.60
2018-10-09T15:46:10.120Z,78.00
2018-10-09T15:48:38.677Z,77.80
2018-10-09T15:51:07.349Z,78.10
2018-10-09T15:53:35.911Z,78.30
2018-10-09T15:56:04.465Z,78.40
2018-10-09T15:58:32.999Z,78.30
2018-10-09T16:01:01.589Z,79.10
2018-10-09T16:03:30.113Z,79.60
2018-10-09T16:05:59.214Z,79.50
2018-10-09T16:08:29.820Z,79.50
2018-10-09T16:10:58.800Z,79.80
2018-10-09T16:13:27.380Z,80.10
2018-10-09T16:15:56.108Z,80.30
2018-10-09T16:18:24.741Z,80.60
2018-10-09T16:20:53.339Z,80.90
2018-10-09T16:23:21.851Z,81.20
2018-10-09T16:25:50.687Z,81.30
2018-10-09T16:28:19.542Z,81.50
2018-10-09T16:30:48.701Z,82.00
2018-10-09T16:33:17.708Z,82.30
2018-10-09T16:35:46.252Z,82.70
2018-10-09T16:38:14.943Z,83.30
2018-10-09T16:40:43.523Z,83.80
2018-10-09T16:43:12.126Z,84.00
2018-10-09T16:45:40.654Z,84.10
2018-10-09T16:48:09.329Z,85.70
2018-10-09T16:50:38.031Z,85.20
2018-10-09T16:53:06.793Z,86.40
2018-10-09T16:55:35.351Z,87.40
2018-10-09T16:58:04.266Z,88.20
2018-10-09T17:00:32.913Z,90.10
2018-10-09T17:03:01.545Z,90.60
2018-10-09T17:05:30.706Z,91.50
2018-10-09T17:07:59.215Z,91.70
2018-10-09T17:10:27.925Z,92.10
2018-10-09T17:12:56.473Z,93.10
2018-10-09T17:15:25.205Z,93.10
2018-10-09T17:17:53.781Z,93.50
2018-10-09T17:20:22.358Z,93.90
2018-10-09T17:22:51.011Z,94.20
2018-10-09T17:25:19.589Z,94.50
2018-10-09T17:27:48.205Z,95.00
2018-10-09T17:30:16.857Z,95.20
2018-10-09T17:32:45.476Z,95.40
2018-10-09T17:35:14.520Z,95.70
2018-10-09T17:37:43.231Z,95.60
2018-10-09T17:40:11.812Z,95.50
2018-10-09T17:42:41.473Z,95.60
2018-10-09T17:45:09.987Z,95.40
2018-10-09T17:47:38.721Z,95.50
2018-10-09T17:50:07.929Z,95.70
2018-10-09T17:52:38.100Z,96.00
2018-10-09T17:55:06.737Z,96.50
2018-10-09T17:57:35.273Z,96.20
2018-10-09T18:00:04.178Z,96.20
2018-10-09T18:02:32.897Z,96.40
2018-10-09T18:05:01.476Z,96.20
2018-10-09T18:07:30.075Z,96.50
2018-10-09T18:09:58.666Z,96.70
2018-10-09T18:12:27.343Z,96.80
2018-10-09T18:14:55.998Z,96.80
2018-10-09T18:17:24.564Z,97.00
2018-10-09T18:19:53.265Z,97.10
2018-10-09T18:22:21.819Z,97.00
2018-10-09T18:24:50.327Z,97.10
2018-10-09T18:27:18.939Z,97.20
2018-10-09T18:29:47.486Z,97.10
2018-10-09T18:32:16.279Z,97.30
2018-10-09T18:34:44.968Z,97.60
2018-10-09T18:37:13.628Z,97.50
2018-10-09T18:39:42.155Z,97.60
2018-10-09T18:42:10.732Z,97.90
2018-10-09T18:44:39.216Z,98.00
2018-10-09T18:47:13.008Z,97.60
2018-10-09T18:49:41.597Z,97.50
2018-10-09T18:52:11.358Z,97.70
2018-10-09T18:54:39.859Z,97.70
2018-10-09T18:57:10.060Z,97.80
2018-10-09T18:59:38.681Z,97.80
2018-10-09T19:02:07.720Z,97.60
2018-10-09T19:04:36.286Z,97.90
2018-10-09T19:07:04.896Z,98.00
2018-10-09T19:09:33.457Z,98.00
2018-10-09T19:12:02.058Z,97.90
2018-10-09T19:14:30.602Z,98.00
2018-10-09T19:16:59.161Z,97.90
2018-10-09T19:19:27.814Z,98.20
2018-10-09T19:21:56.470Z,98.30
2018-10-09T19:24:25.398Z,98.30
2018-10-09T19:26:53.953Z,98.30
2018-10-09T19:29:22.672Z,98.00
2018-10-09T19:31:51.428Z,97.90
2018-10-09T19:34:20.205Z,98.20
2018-10-09T19:36:48.852Z,98.30
2018-10-09T19:39:17.514Z,98.30
2018-10-09T19:41:46.049Z,98.60
2018-10-09T19:44:14.766Z,98.60
2018-10-09T19:46:43.345Z,98.80
2018-10-09T19:49:12.038Z,98.70
2018-10-09T19:51:40.592Z,98.60
2018-10-09T19:54:09.132Z,98.70
2018-10-09T19:56:37.780Z,98.90
2018-10-09T19:59:06.395Z,99.10
2018-10-09T20:01:35.087Z,99.10
2018-10-09T20:04:03.700Z,99.10
2018-10-09T20:06:32.559Z,99.40
2018-10-09T20:09:01.202Z,99.30
2018-10-09T20:11:29.962Z,99.40
2018-10-09T20:13:58.623Z,99.70
2018-10-09T20:16:27.343Z,99.90
2018-10-09T20:18:56.005Z,99.90
2018-10-09T20:21:24.677Z,99.90
2018-10-09T20:23:53.310Z,99.90
2018-10-09T20:26:21.987Z,99.90
2018-10-09T20:28:50.693Z,99.90
2018-10-09T20:31:19.304Z,99.90
2018-10-09T20:33:47.832Z,99.70
2018-10-09T20:36:16.340Z,99.70
2018-10-09T20:38:44.899Z,99.60
2018-10-09T20:41:13.485Z,99.80
2018-10-09T20:43:42.277Z,99.90
2018-10-09T20:46:10.881Z,99.90
2018-10-09T20:48:39.453Z,99.70
2018-10-09T20:51:08.072Z,99.90
2018-10-09T20:53:36.699Z,99.80
2018-10-09T20:56:05.283Z,99.80
2018-10-09T20:58:33.879Z,99.90
2018-10-09T21:01:02.432Z,99.90
2018-10-09T21:03:30.984Z,99.90
2018-10-09T21:05:59.662Z,99.90
2018-10-09T21:08:28.272Z,99.90
2018-10-09T21:10:56.773Z,99.90
2018-10-09T21:13:25.366Z,99.90
2018-10-09T21:15:53.917Z,99.90
2018-10-09T21:18:22.446Z,99.90
2018-10-09T21:20:51.130Z,99.90
2018-10-09T21:23:19.662Z,99.90
2018-10-09T21:25:48.193Z,99.90
2018-10-09T21:28:16.748Z,99.90
2018-10-09T21:30:45.342Z,99.90
2018-10-09T21:33:13.946Z,99.90
2018-10-09T21:35:42.475Z,99.90
2018-10-09T21:38:11.117Z,99.90
2018-10-09T21:40:40.613Z,99.90
2018-10-09T21:43:09.917Z,99.90
2018-10-09T21:45:38.621Z,99.90
2018-10-09T21:48:07.311Z,99.90
2018-10-09T21:50:35.837Z,99.90
2018-10-09T21:53:05.640Z,99.90
2018-10-09T21:55:35.322Z,99.90
2018-10-09T21:58:05.872Z,99.90
2018-10-09T22:00:40.023Z,99.90
2018-10-09T22:03:08.681Z,99.90
2018-10-09T22:05:37.276Z,99.90
2018-10-09T22:08:05.873Z,99.90
2018-10-09T22:10:34.406Z,99.90
2018-10-09T22:13:02.914Z,99.90
2018-10-09T22:15:31.742Z,99.90
2018-10-09T22:18:00.316Z,99.90
2018-10-09T22:20:28.870Z,99.90
2018-10-09T22:22:57.338Z,99.90
2018-10-09T22:25:25.884Z,99.90
2018-10-09T22:27:54.438Z,99.90
2018-10-09T22:30:22.979Z,99.90
2018-10-09T22:32:51.546Z,99.90
2018-10-09T22:35:20.036Z,99.90
2018-10-09T22:37:48.586Z,99.90
2018-10-09T22:40:17.094Z,99.90
2018-10-09T22:42:45.638Z,99.90
2018-10-09T22:45:14.173Z,99.90
2018-10-09T22:47:42.940Z,99.90
2018-10-09T22:50:11.784Z,99.90
2018-10-09T22:52:40.302Z,99.90
2018-10-09T22:55:08.871Z,99.90
2018-10-09T22:57:37.702Z,99.90
2018-10-09T23:00:06.326Z,99.90
2018-10-09T23:02:34.854Z,99.90
2018-10-09T23:05:03.438Z,99.90
2018-10-09T23:07:31.923Z,99.90
2018-10-09T23:10:00.675Z,99.90
2018-10-09T23:12:29.143Z,99.90
2018-10-09T23:14:57.625Z,99.90
2018-10-09T23:17:26.165Z,99.90
2018-10-09T23:19:54.625Z,99.90
2018-10-09T23:22:23.737Z,99.90
2018-10-09T23:24:52.189Z,99.90
2018-10-09T23:27:20.697Z,99.90
2018-10-09T23:29:49.183Z,99.90
2018-10-09T23:32:17.693Z,99.90
2018-10-09T23:34:46.205Z,99.90
2018-10-09T23:37:14.749Z,99.90
2018-10-09T23:39:43.217Z,99.90
2018-10-09T23:42:11.741Z,99.90
2018-10-09T23:44:40.262Z,99.90
2018-10-09T23:47:08.785Z,99.90
2018-10-09T23:49:37.274Z,99.90
2018-10-09T23:52:05.784Z,99.90
2018-10-09T23:54:34.263Z,99.90
2018-10-09T23:57:02.855Z,99.90
2018-10-09T23:59:31.396Z,99.90
